sensor_id;sensor_type;location;lat;lon;timestamp;P1;P2;P0
65012;PMS5003;51715;39.432;-77.518;2022-09-09T00:00:46;3;3;
65012;PMS5003;51715;39.432;-77.518;2022-09-09T00:03:22;4;4;
65012;PMS5003;51715;39.432;-77.518;2022-09-09T00:05:54;4;4;
65012;PMS5003;51715;39.432;-77.518;2022-09-09T00:08:31;5;5;
65012;PMS5003;51715;39.432;-77.518;2022-09-09T00:11:09;4;4;
65012;PMS5003;51715;39.432;-77.518;2022-09-09T00:13:46;9;8;
65012;PMS5003;51715;39.432;-77.518;2022-09-09T00:16:19;10;10;
65012;PMS5003;51715;39.432;-77.518;2022-09-09T00:18:53;7;7;
65012;PMS5003;51715;39.432;-77.518;2022-09-09T00:21:30;10;10;
65012;PMS5003;51715;39.432;-77.518;2022-09-09T00:24:04;9;9;
65012;PMS5003;51715;39.432;-77.518;2022-09-09T00:26:45;10;10;
65012;PMS5003;51715;39.432;-77.518;2022-09-09T00:29:21;8;8;
65012;PMS5003;51715;39.432;-77.518;2022-09-09T00:31:57;9;9;
65012;PMS5003;51715;39.432;-77.518;2022-09-09T00:34:36;8;7;
65012;PMS5003;51715;39.432;-77.518;2022-09-09T00:37:11;12;11;
65012;PMS5003;51715;39.432;-77.518;2022-09-09T00:39:43;8;7;
65012;PMS5003;51715;39.432;-77.518;2022-09-09T00:42:16;7;6;
65012;PMS5003;51715;39.432;-77.518;2022-09-09T00:44:51;4;4;
65012;PMS5003;51715;39.432;-77.518;2022-09-09T00:47:28;7;7;
65012;PMS5003;51715;39.432;-77.518;2022-09-09T00:50:10;4;4;
65012;PMS5003;51715;39.432;-77.518;2022-09-09T00:52:50;7;6;
65012;PMS5003;51715;39.432;-77.518;2022-09-09T00:55:33;3;3;
65012;PMS5003;51715;39.432;-77.518;2022-09-09T00:58:08;3;3;
65012;PMS5003;51715;39.432;-77.518;2022-09-09T01:00:39;7;6;
65012;PMS5003;51715;39.432;-77.518;2022-09-09T01:03:17;9;8;
65012;PMS5003;51715;39.432;-77.518;2022-09-09T01:05:56;2;2;
65012;PMS5003;51715;39.432;-77.518;2022-09-09T01:09:27;5;5;
65012;PMS5003;51715;39.432;-77.518;2022-09-09T01:12:12;4;4;
65012;PMS5003;51715;39.432;-77.518;2022-09-09T01:14:45;4;4;
65012;PMS5003;51715;39.432;-77.518;2022-09-09T01:17:20;7;7;
65012;PMS5003;51715;39.432;-77.518;2022-09-09T01:19:55;7;6;
65012;PMS5003;51715;39.432;-77.518;2022-09-09T01:22:34;6;6;
65012;PMS5003;51715;39.432;-77.518;2022-09-09T01:25:28;6;6;
65012;PMS5003;51715;39.432;-77.518;2022-09-09T01:28:32;8;5;
65012;PMS5003;51715;39.432;-77.518;2022-09-09T01:31:04;6;5;
65012;PMS5003;51715;39.432;-77.518;2022-09-09T01:33:36;7;6;
65012;PMS5003;51715;39.432;-77.518;2022-09-09T01:36:06;6;6;
65012;PMS5003;51715;39.432;-77.518;2022-09-09T01:38:40;5;5;
65012;PMS5003;51715;39.432;-77.518;2022-09-09T01:41:08;5;5;
65012;PMS5003;51715;39.432;-77.518;2022-09-09T01:43:38;5;5;
65012;PMS5003;51715;39.432;-77.518;2022-09-09T01:46:07;5;5;
65012;PMS5003;51715;39.432;-77.518;2022-09-09T01:48:37;5;5;
65012;PMS5003;51715;39.432;-77.518;2022-09-09T01:51:07;4;4;
65012;PMS5003;51715;39.432;-77.518;2022-09-09T01:53:38;5;5;
65012;PMS5003;51715;39.432;-77.518;2022-09-09T01:56:11;6;5;
65012;PMS5003;51715;39.432;-77.518;2022-09-09T01:58:54;4;4;
65012;PMS5003;51715;39.432;-77.518;2022-09-09T02:01:47;5;5;
65012;PMS5003;51715;39.432;-77.518;2022-09-09T02:04:30;2;2;
65012;PMS5003;51715;39.432;-77.518;2022-09-09T02:07:05;4;4;
65012;PMS5003;51715;39.432;-77.518;2022-09-09T02:09:41;3;3;
65012;PMS5003;51715;39.432;-77.518;2022-09-09T02:12:14;4;4;
65012;PMS5003;51715;39.432;-77.518;2022-09-09T02:14:49;6;6;
65012;PMS5003;51715;39.432;-77.518;2022-09-09T02:17:24;3;3;
65012;PMS5003;51715;39.432;-77.518;2022-09-09T02:19:57;4;4;
65012;PMS5003;51715;39.432;-77.518;2022-09-09T02:22:31;4;4;
65012;PMS5003;51715;39.432;-77.518;2022-09-09T02:25:04;6;4;
65012;PMS5003;51715;39.432;-77.518;2022-09-09T02:27:34;5;5;
65012;PMS5003;51715;39.432;-77.518;2022-09-09T02:30:03;3;3;
65012;PMS5003;51715;39.432;-77.518;2022-09-09T02:32:35;7;4;
65012;PMS5003;51715;39.432;-77.518;2022-09-09T02:35:06;3;3;
65012;PMS5003;51715;39.432;-77.518;2022-09-09T02:37:39;4;4;
65012;PMS5003;51715;39.432;-77.518;2022-09-09T02:40:10;4;4;
65012;PMS5003;51715;39.432;-77.518;2022-09-09T02:42:40;4;4;
65012;PMS5003;51715;39.432;-77.518;2022-09-09T02:45:09;4;4;
65012;PMS5003;51715;39.432;-77.518;2022-09-09T02:47:41;4;4;
65012;PMS5003;51715;39.432;-77.518;2022-09-09T02:50:17;4;2;
65012;PMS5003;51715;39.432;-77.518;2022-09-09T02:52:55;4;3;
65012;PMS5003;51715;39.432;-77.518;2022-09-09T02:55:35;4;4;
65012;PMS5003;51715;39.432;-77.518;2022-09-09T02:58:09;4;3;
65012;PMS5003;51715;39.432;-77.518;2022-09-09T03:00:41;3;3;
65012;PMS5003;51715;39.432;-77.518;2022-09-09T03:03:11;4;4;
65012;PMS5003;51715;39.432;-77.518;2022-09-09T03:05:40;3;3;
65012;PMS5003;51715;39.432;-77.518;2022-09-09T03:08:09;5;4;
65012;PMS5003;51715;39.432;-77.518;2022-09-09T03:10:38;2;2;
65012;PMS5003;51715;39.432;-77.518;2022-09-09T03:13:08;6;5;
65012;PMS5003;51715;39.432;-77.518;2022-09-09T03:15:37;3;3;
65012;PMS5003;51715;39.432;-77.518;2022-09-09T03:18:05;4;4;
65012;PMS5003;51715;39.432;-77.518;2022-09-09T03:20:34;5;4;
65012;PMS5003;51715;39.432;-77.518;2022-09-09T03:23:04;5;5;
65012;PMS5003;51715;39.432;-77.518;2022-09-09T03:25:33;5;4;
65012;PMS5003;51715;39.432;-77.518;2022-09-09T03:28:02;3;3;
65012;PMS5003;51715;39.432;-77.518;2022-09-09T03:30:32;5;4;
65012;PMS5003;51715;39.432;-77.518;2022-09-09T03:33:00;5;4;
65012;PMS5003;51715;39.432;-77.518;2022-09-09T03:35:29;7;4;
65012;PMS5003;51715;39.432;-77.518;2022-09-09T03:37:57;4;4;
65012;PMS5003;51715;39.432;-77.518;2022-09-09T03:40:27;2;2;
65012;PMS5003;51715;39.432;-77.518;2022-09-09T03:42:56;5;4;
65012;PMS5003;51715;39.432;-77.518;2022-09-09T03:45:24;3;3;
65012;PMS5003;51715;39.432;-77.518;2022-09-09T03:47:54;4;3;
65012;PMS5003;51715;39.432;-77.518;2022-09-09T03:50:21;4;4;
65012;PMS5003;51715;39.432;-77.518;2022-09-09T03:52:49;3;3;
65012;PMS5003;51715;39.432;-77.518;2022-09-09T03:55:18;3;3;
65012;PMS5003;51715;39.432;-77.518;2022-09-09T03:57:48;5;4;
65012;PMS5003;51715;39.432;-77.518;2022-09-09T04:03:53;4;4;
65012;PMS5003;51715;39.432;-77.518;2022-09-09T04:06:22;4;4;
65012;PMS5003;51715;39.432;-77.518;2022-09-09T04:08:51;3;3;
65012;PMS5003;51715;39.432;-77.518;2022-09-09T04:11:19;3;3;
65012;PMS5003;51715;39.432;-77.518;2022-09-09T04:13:48;4;4;
65012;PMS5003;51715;39.432;-77.518;2022-09-09T04:16:15;3;3;
65012;PMS5003;51715;39.432;-77.518;2022-09-09T04:18:44;4;4;
65012;PMS5003;51715;39.432;-77.518;2022-09-09T04:21:12;3;3;
65012;PMS5003;51715;39.432;-77.518;2022-09-09T04:23:42;3;3;
65012;PMS5003;51715;39.432;-77.518;2022-09-09T04:26:11;4;4;
65012;PMS5003;51715;39.432;-77.518;2022-09-09T04:28:39;5;5;
65012;PMS5003;51715;39.432;-77.518;2022-09-09T04:31:07;4;3;
65012;PMS5003;51715;39.432;-77.518;2022-09-09T04:33:38;4;4;
65012;PMS5003;51715;39.432;-77.518;2022-09-09T04:36:07;5;5;
65012;PMS5003;51715;39.432;-77.518;2022-09-09T04:38:36;3;3;
65012;PMS5003;51715;39.432;-77.518;2022-09-09T04:41:05;5;5;
65012;PMS5003;51715;39.432;-77.518;2022-09-09T04:43:34;4;4;
65012;PMS5003;51715;39.432;-77.518;2022-09-09T04:46:03;4;4;
65012;PMS5003;51715;39.432;-77.518;2022-09-09T04:48:31;3;3;
65012;PMS5003;51715;39.432;-77.518;2022-09-09T04:51:00;4;4;
65012;PMS5003;51715;39.432;-77.518;2022-09-09T04:53:30;4;4;
65012;PMS5003;51715;39.432;-77.518;2022-09-09T04:56:01;4;3;
65012;PMS5003;51715;39.432;-77.518;2022-09-09T04:58:33;3;3;
65012;PMS5003;51715;39.432;-77.518;2022-09-09T05:01:05;4;4;
65012;PMS5003;51715;39.432;-77.518;2022-09-09T05:03:34;2;2;
65012;PMS5003;51715;39.432;-77.518;2022-09-09T05:06:03;4;4;
65012;PMS5003;51715;39.432;-77.518;2022-09-09T05:08:32;3;3;
65012;PMS5003;51715;39.432;-77.518;2022-09-09T05:11:01;3;3;
65012;PMS5003;51715;39.432;-77.518;2022-09-09T05:13:28;3;3;
65012;PMS5003;51715;39.432;-77.518;2022-09-09T05:15:57;4;4;
65012;PMS5003;51715;39.432;-77.518;2022-09-09T05:18:25;4;4;
65012;PMS5003;51715;39.432;-77.518;2022-09-09T05:20:58;2;2;
65012;PMS5003;51715;39.432;-77.518;2022-09-09T05:23:26;4;4;
65012;PMS5003;51715;39.432;-77.518;2022-09-09T05:25:56;3;3;
65012;PMS5003;51715;39.432;-77.518;2022-09-09T05:28:25;3;3;
65012;PMS5003;51715;39.432;-77.518;2022-09-09T05:30:56;3;3;
65012;PMS5003;51715;39.432;-77.518;2022-09-09T05:33:27;5;5;
65012;PMS5003;51715;39.432;-77.518;2022-09-09T05:35:56;3;3;
65012;PMS5003;51715;39.432;-77.518;2022-09-09T05:38:27;4;3;
65012;PMS5003;51715;39.432;-77.518;2022-09-09T05:40:55;2;2;
65012;PMS5003;51715;39.432;-77.518;2022-09-09T05:43:25;3;3;
65012;PMS5003;51715;39.432;-77.518;2022-09-09T05:46:02;4;4;
65012;PMS5003;51715;39.432;-77.518;2022-09-09T05:48:32;3;3;
65012;PMS5003;51715;39.432;-77.518;2022-09-09T05:51:02;2;2;
65012;PMS5003;51715;39.432;-77.518;2022-09-09T05:53:31;4;4;
65012;PMS5003;51715;39.432;-77.518;2022-09-09T05:56:00;3;3;
65012;PMS5003;51715;39.432;-77.518;2022-09-09T05:58:30;3;3;
65012;PMS5003;51715;39.432;-77.518;2022-09-09T06:01:01;3;3;
65012;PMS5003;51715;39.432;-77.518;2022-09-09T06:03:31;3;3;
65012;PMS5003;51715;39.432;-77.518;2022-09-09T06:06:00;5;5;
65012;PMS5003;51715;39.432;-77.518;2022-09-09T06:08:29;3;3;
65012;PMS5003;51715;39.432;-77.518;2022-09-09T06:11:01;3;3;
65012;PMS5003;51715;39.432;-77.518;2022-09-09T06:13:30;2;2;
65012;PMS5003;51715;39.432;-77.518;2022-09-09T06:15:58;4;4;
65012;PMS5003;51715;39.432;-77.518;2022-09-09T06:18:27;5;5;
65012;PMS5003;51715;39.432;-77.518;2022-09-09T06:20:56;5;3;
65012;PMS5003;51715;39.432;-77.518;2022-09-09T06:23:26;2;2;
65012;PMS5003;51715;39.432;-77.518;2022-09-09T06:26:02;3;3;
65012;PMS5003;51715;39.432;-77.518;2022-09-09T06:28:32;2;2;
65012;PMS5003;51715;39.432;-77.518;2022-09-09T06:31:00;5;4;
65012;PMS5003;51715;39.432;-77.518;2022-09-09T06:33:30;6;4;
65012;PMS5003;51715;39.432;-77.518;2022-09-09T06:36:00;5;5;
65012;PMS5003;51715;39.432;-77.518;2022-09-09T06:38:30;4;4;
65012;PMS5003;51715;39.432;-77.518;2022-09-09T06:40:59;4;4;
65012;PMS5003;51715;39.432;-77.518;2022-09-09T06:43:28;4;4;
65012;PMS5003;51715;39.432;-77.518;2022-09-09T06:45:56;3;3;
65012;PMS5003;51715;39.432;-77.518;2022-09-09T06:48:26;5;5;
65012;PMS5003;51715;39.432;-77.518;2022-09-09T06:51:03;5;5;
65012;PMS5003;51715;39.432;-77.518;2022-09-09T06:53:33;6;5;
65012;PMS5003;51715;39.432;-77.518;2022-09-09T06:56:13;3;3;
65012;PMS5003;51715;39.432;-77.518;2022-09-09T06:58:46;3;3;
65012;PMS5003;51715;39.432;-77.518;2022-09-09T07:01:15;2;2;
65012;PMS5003;51715;39.432;-77.518;2022-09-09T07:03:46;2;2;
65012;PMS5003;51715;39.432;-77.518;2022-09-09T07:06:17;3;3;
65012;PMS5003;51715;39.432;-77.518;2022-09-09T07:08:50;2;2;
65012;PMS5003;51715;39.432;-77.518;2022-09-09T07:11:20;4;3;
65012;PMS5003;51715;39.432;-77.518;2022-09-09T07:13:50;2;2;
65012;PMS5003;51715;39.432;-77.518;2022-09-09T07:16:18;3;3;
65012;PMS5003;51715;39.432;-77.518;2022-09-09T07:18:46;3;3;
65012;PMS5003;51715;39.432;-77.518;2022-09-09T07:21:15;4;3;
65012;PMS5003;51715;39.432;-77.518;2022-09-09T07:23:44;3;3;
65012;PMS5003;51715;39.432;-77.518;2022-09-09T07:26:14;2;1;
65012;PMS5003;51715;39.432;-77.518;2022-09-09T07:28:44;4;4;
65012;PMS5003;51715;39.432;-77.518;2022-09-09T07:31:14;1;1;
65012;PMS5003;51715;39.432;-77.518;2022-09-09T07:33:44;1;1;
65012;PMS5003;51715;39.432;-77.518;2022-09-09T07:36:14;4;3;
65012;PMS5003;51715;39.432;-77.518;2022-09-09T07:38:45;3;3;
65012;PMS5003;51715;39.432;-77.518;2022-09-09T07:41:16;1;1;
65012;PMS5003;51715;39.432;-77.518;2022-09-09T07:43:46;2;2;
65012;PMS5003;51715;39.432;-77.518;2022-09-09T07:46:16;2;2;
65012;PMS5003;51715;39.432;-77.518;2022-09-09T07:48:47;3;3;
65012;PMS5003;51715;39.432;-77.518;2022-09-09T07:51:17;2;2;
65012;PMS5003;51715;39.432;-77.518;2022-09-09T07:53:47;3;3;
65012;PMS5003;51715;39.432;-77.518;2022-09-09T07:56:16;2;2;
65012;PMS5003;51715;39.432;-77.518;2022-09-09T07:58:45;3;3;
65012;PMS5003;51715;39.432;-77.518;2022-09-09T08:01:14;5;4;
65012;PMS5003;51715;39.432;-77.518;2022-09-09T08:03:45;1;1;
65012;PMS5003;51715;39.432;-77.518;2022-09-09T08:06:18;3;3;
65012;PMS5003;51715;39.432;-77.518;2022-09-09T08:08:49;6;5;
65012;PMS5003;51715;39.432;-77.518;2022-09-09T08:11:18;3;3;
65012;PMS5003;51715;39.432;-77.518;2022-09-09T08:13:46;3;3;
65012;PMS5003;51715;39.432;-77.518;2022-09-09T08:16:16;3;3;
65012;PMS5003;51715;39.432;-77.518;2022-09-09T08:18:47;3;3;
65012;PMS5003;51715;39.432;-77.518;2022-09-09T08:21:16;3;3;
65012;PMS5003;51715;39.432;-77.518;2022-09-09T08:23:46;3;3;
65012;PMS5003;51715;39.432;-77.518;2022-09-09T08:26:15;4;4;
65012;PMS5003;51715;39.432;-77.518;2022-09-09T08:28:46;3;3;
65012;PMS5003;51715;39.432;-77.518;2022-09-09T08:31:16;2;2;
65012;PMS5003;51715;39.432;-77.518;2022-09-09T08:33:47;1;1;
65012;PMS5003;51715;39.432;-77.518;2022-09-09T08:36:16;3;3;
65012;PMS5003;51715;39.432;-77.518;2022-09-09T08:38:47;4;4;
65012;PMS5003;51715;39.432;-77.518;2022-09-09T08:41:22;2;2;
65012;PMS5003;51715;39.432;-77.518;2022-09-09T08:44:03;4;3;
65012;PMS5003;51715;39.432;-77.518;2022-09-09T08:46:36;2;2;
65012;PMS5003;51715;39.432;-77.518;2022-09-09T08:49:17;2;2;
65012;PMS5003;51715;39.432;-77.518;2022-09-09T08:52:00;2;1;
65012;PMS5003;51715;39.432;-77.518;2022-09-09T08:54:32;4;4;
65012;PMS5003;51715;39.432;-77.518;2022-09-09T08:57:02;2;2;
65012;PMS5003;51715;39.432;-77.518;2022-09-09T08:59:36;1;1;
65012;PMS5003;51715;39.432;-77.518;2022-09-09T09:02:07;1;1;
65012;PMS5003;51715;39.432;-77.518;2022-09-09T09:04:52;4;2;
65012;PMS5003;51715;39.432;-77.518;2022-09-09T09:07:35;2;2;
65012;PMS5003;51715;39.432;-77.518;2022-09-09T09:10:15;4;4;
65012;PMS5003;51715;39.432;-77.518;2022-09-09T09:12:52;2;2;
65012;PMS5003;51715;39.432;-77.518;2022-09-09T09:15:23;3;3;
65012;PMS5003;51715;39.432;-77.518;2022-09-09T09:17:53;5;5;
65012;PMS5003;51715;39.432;-77.518;2022-09-09T09:20:23;3;3;
65012;PMS5003;51715;39.432;-77.518;2022-09-09T09:22:57;2;2;
65012;PMS5003;51715;39.432;-77.518;2022-09-09T09:25:31;4;2;
65012;PMS5003;51715;39.432;-77.518;2022-09-09T09:28:07;3;1;
65012;PMS5003;51715;39.432;-77.518;2022-09-09T09:30:44;3;3;
65012;PMS5003;51715;39.432;-77.518;2022-09-09T09:33:17;2;2;
65012;PMS5003;51715;39.432;-77.518;2022-09-09T09:35:49;2;2;
65012;PMS5003;51715;39.432;-77.518;2022-09-09T09:38:18;5;3;
65012;PMS5003;51715;39.432;-77.518;2022-09-09T09:40:49;3;3;
65012;PMS5003;51715;39.432;-77.518;2022-09-09T09:43:19;4;4;
65012;PMS5003;51715;39.432;-77.518;2022-09-09T09:45:51;2;2;
65012;PMS5003;51715;39.432;-77.518;2022-09-09T09:48:19;3;3;
65012;PMS5003;51715;39.432;-77.518;2022-09-09T09:50:49;4;4;
65012;PMS5003;51715;39.432;-77.518;2022-09-09T09:53:21;2;2;
65012;PMS5003;51715;39.432;-77.518;2022-09-09T09:55:53;5;4;
65012;PMS5003;51715;39.432;-77.518;2022-09-09T09:58:25;3;3;
65012;PMS5003;51715;39.432;-77.518;2022-09-09T10:00:56;4;4;
65012;PMS5003;51715;39.432;-77.518;2022-09-09T10:03:26;3;3;
65012;PMS5003;51715;39.432;-77.518;2022-09-09T10:05:57;4;4;
65012;PMS5003;51715;39.432;-77.518;2022-09-09T10:08:26;1;1;
65012;PMS5003;51715;39.432;-77.518;2022-09-09T10:10:59;3;3;
65012;PMS5003;51715;39.432;-77.518;2022-09-09T10:13:42;5;5;
65012;PMS5003;51715;39.432;-77.518;2022-09-09T10:16:21;6;4;
65012;PMS5003;51715;39.432;-77.518;2022-09-09T10:19:01;3;3;
65012;PMS5003;51715;39.432;-77.518;2022-09-09T10:21:39;3;3;
65012;PMS5003;51715;39.432;-77.518;2022-09-09T10:24:25;1;1;
65012;PMS5003;51715;39.432;-77.518;2022-09-09T10:27:05;3;2;
65012;PMS5003;51715;39.432;-77.518;2022-09-09T10:29:49;4;3;
65012;PMS5003;51715;39.432;-77.518;2022-09-09T10:32:33;4;4;
65012;PMS5003;51715;39.432;-77.518;2022-09-09T10:35:10;2;2;
65012;PMS5003;51715;39.432;-77.518;2022-09-09T10:37:48;3;3;
65012;PMS5003;51715;39.432;-77.518;2022-09-09T10:40:31;2;1;
65012;PMS5003;51715;39.432;-77.518;2022-09-09T10:43:04;3;2;
65012;PMS5003;51715;39.432;-77.518;2022-09-09T10:45:43;1;1;
65012;PMS5003;51715;39.432;-77.518;2022-09-09T10:48:28;3;3;
65012;PMS5003;51715;39.432;-77.518;2022-09-09T10:51:11;3;3;
65012;PMS5003;51715;39.432;-77.518;2022-09-09T10:53:53;3;3;
65012;PMS5003;51715;39.432;-77.518;2022-09-09T10:56:37;3;3;
65012;PMS5003;51715;39.432;-77.518;2022-09-09T10:59:12;3;3;
65012;PMS5003;51715;39.432;-77.518;2022-09-09T11:01:47;3;3;
65012;PMS5003;51715;39.432;-77.518;2022-09-09T11:04:22;2;2;
65012;PMS5003;51715;39.432;-77.518;2022-09-09T11:06:53;3;3;
65012;PMS5003;51715;39.432;-77.518;2022-09-09T11:09:22;4;4;
65012;PMS5003;51715;39.432;-77.518;2022-09-09T11:11:56;3;3;
65012;PMS5003;51715;39.432;-77.518;2022-09-09T11:14:28;3;3;
65012;PMS5003;51715;39.432;-77.518;2022-09-09T11:17:02;2;2;
65012;PMS5003;51715;39.432;-77.518;2022-09-09T11:19:34;3;3;
65012;PMS5003;51715;39.432;-77.518;2022-09-09T11:22:07;1;1;
65012;PMS5003;51715;39.432;-77.518;2022-09-09T11:24:44;2;2;
65012;PMS5003;51715;39.432;-77.518;2022-09-09T11:27:19;2;2;
65012;PMS5003;51715;39.432;-77.518;2022-09-09T11:29:59;3;3;
65012;PMS5003;51715;39.432;-77.518;2022-09-09T11:30:14;3;3;
65012;PMS5003;51715;39.432;-77.518;2022-09-09T11:32:51;2;2;
65012;PMS5003;51715;39.432;-77.518;2022-09-09T11:35:44;1;1;
65012;PMS5003;51715;39.432;-77.518;2022-09-09T11:38:26;1;1;
65012;PMS5003;51715;39.432;-77.518;2022-09-09T11:40:56;3;3;
65012;PMS5003;51715;39.432;-77.518;2022-09-09T11:43:28;2;2;
65012;PMS5003;51715;39.432;-77.518;2022-09-09T11:46:00;4;3;
65012;PMS5003;51715;39.432;-77.518;2022-09-09T11:48:32;3;3;
65012;PMS5003;51715;39.432;-77.518;2022-09-09T11:51:03;3;3;
65012;PMS5003;51715;39.432;-77.518;2022-09-09T11:53:32;3;2;
65012;PMS5003;51715;39.432;-77.518;2022-09-09T11:56:04;1;1;
65012;PMS5003;51715;39.432;-77.518;2022-09-09T11:58:37;1;1;
65012;PMS5003;51715;39.432;-77.518;2022-09-09T12:01:13;3;3;
65012;PMS5003;51715;39.432;-77.518;2022-09-09T12:03:59;2;2;
65012;PMS5003;51715;39.432;-77.518;2022-09-09T12:06:42;1;1;
65012;PMS5003;51715;39.432;-77.518;2022-09-09T12:09:16;1;1;
65012;PMS5003;51715;39.432;-77.518;2022-09-09T12:11:49;4;3;
65012;PMS5003;51715;39.432;-77.518;2022-09-09T12:14:20;3;3;
65012;PMS5003;51715;39.432;-77.518;2022-09-09T12:16:51;3;3;
65012;PMS5003;51715;39.432;-77.518;2022-09-09T12:19:20;3;3;
65012;PMS5003;51715;39.432;-77.518;2022-09-09T12:21:54;3;3;
